Time;durP1;ratioP1;P1;durP2;ratioP2;P2;SDS_P1;SDS_P2;PMS_P1;PMS_P2;Temp;Humidity;BMP_temperature;BMP_pressure;BME280_temperature;BME280_humidity;BME280_pressure;Samples;Min_cycle;Max_cycle;Signal;HPM_P1;HPM_P2
2023/04/08 00:02:23;;;;;;;31.27;18.57;;;8.80;99.90;;;;;;5075656;28;20210;-79
2023/04/08 00:04:49;;;;;;;36.37;20.90;;;8.80;99.90;;;;;;5075030;28;20547;-79
2023/04/08 00:07:15;;;;;;;32.83;20.00;;;8.80;99.90;;;;;;5074942;28;20179;-79
2023/04/08 00:09:40;;;;;;;28.80;19.67;;;8.80;99.90;;;;;;5074924;28;20741;-79
2023/04/08 00:12:06;;;;;;;30.43;20.30;;;8.80;99.90;;;;;;5075659;28;20629;-78
2023/04/08 00:14:32;;;;;;;31.80;21.20;;;8.80;99.90;;;;;;5075496;28;20205;-79
2023/04/08 00:16:57;;;;;;;31.40;20.77;;;8.80;99.90;;;;;;5076078;28;20258;-78
2023/04/08 00:19:24;;;;;;;32.20;19.40;;;8.80;99.90;;;;;;5075055;28;20187;-79
2023/04/08 00:21:50;;;;;;;31.50;19.30;;;8.80;99.90;;;;;;5076147;28;20195;-79
2023/04/08 00:24:16;;;;;;;36.40;20.93;;;8.80;99.90;;;;;;5075290;28;20225;-79
2023/04/08 00:26:41;;;;;;;33.23;20.93;;;8.80;99.90;;;;;;5074621;28;20183;-79
2023/04/08 00:29:07;;;;;;;38.40;22.17;;;8.80;99.90;;;;;;5074051;28;20175;-78
2023/04/08 00:31:32;;;;;;;37.30;22.53;;;8.80;99.90;;;;;;5072405;28;20179;-80
2023/04/08 00:33:58;;;;;;;38.87;23.93;;;8.80;99.90;;;;;;5074501;28;20179;-78
2023/04/08 00:36:25;;;;;;;36.20;22.73;;;8.80;99.90;;;;;;5074597;28;20179;-78
2023/04/08 00:38:50;;;;;;;34.07;21.60;;;8.80;99.90;;;;;;5073073;28;20262;-78
2023/04/08 00:41:16;;;;;;;39.67;23.43;;;8.80;99.90;;;;;;5072908;28;20221;-78
2023/04/08 00:43:42;;;;;;;34.07;22.47;;;8.80;99.90;;;;;;5072970;28;20242;-79
2023/04/08 00:46:08;;;;;;;35.37;22.10;;;8.80;99.90;;;;;;5073207;28;20174;-78
2023/04/08 00:48:34;;;;;;;33.70;22.07;;;8.80;99.90;;;;;;5072551;28;20179;-78
2023/04/08 00:50:59;;;;;;;34.17;22.47;;;8.80;99.90;;;;;;5073121;28;20179;-79
2023/04/08 00:53:25;;;;;;;36.50;22.10;;;8.80;99.90;;;;;;5074495;28;20195;-78
2023/04/08 00:55:50;;;;;;;32.23;20.77;;;8.70;99.90;;;;;;5075203;28;20200;-79
2023/04/08 00:58:17;;;;;;;36.37;22.53;;;8.70;99.90;;;;;;5074293;28;20181;-78
2023/04/08 01:00:52;;;;;;;32.87;20.50;;;8.80;99.90;;;;;;5075359;28;20168;-79
2023/04/08 01:03:32;;;;;;;40.33;22.90;;;8.70;99.90;;;;;;5073559;28;20206;-79
2023/04/08 01:06:28;;;;;;;33.97;21.77;;;8.70;99.90;;;;;;5073560;28;20155;-78
2023/04/08 01:08:54;;;;;;;35.90;23.03;;;8.70;99.90;;;;;;5073773;28;20502;-78
2023/04/08 01:11:20;;;;;;;35.30;22.47;;;8.70;99.90;;;;;;5072953;28;20189;-78
2023/04/08 01:13:49;;;;;;;35.23;22.40;;;8.70;99.90;;;;;;5074366;28;20194;-78
2023/04/08 01:16:16;;;;;;;31.50;21.37;;;8.70;99.90;;;;;;5073819;28;20175;-78
2023/04/08 01:18:43;;;;;;;37.70;23.17;;;8.70;99.90;;;;;;5074436;28;20221;-79
2023/04/08 01:21:12;;;;;;;34.10;22.33;;;8.70;99.90;;;;;;5073997;28;20651;-78
2023/04/08 01:24:05;;;;;;;29.97;21.00;;;8.60;99.90;;;;;;5072030;28;20203;-78
2023/04/08 01:26:31;;;;;;;31.60;21.23;;;8.60;99.90;;;;;;5072323;28;20185;-78
2023/04/08 01:29:00;;;;;;;34.50;22.00;;;8.60;99.90;;;;;;5078984;28;20171;-79
2023/04/08 01:31:26;;;;;;;32.10;22.83;;;8.60;99.90;;;;;;5078974;28;20521;-79
2023/04/08 01:33:52;;;;;;;30.80;22.03;;;8.50;99.90;;;;;;5077688;28;20202;-79
2023/04/08 01:36:20;;;;;;;32.67;21.90;;;8.50;99.90;;;;;;5079353;28;20182;-81
2023/04/08 01:38:46;;;;;;;27.63;21.17;;;8.50;99.90;;;;;;5079253;28;20182;-80
2023/04/08 01:41:12;;;;;;;27.40;21.93;;;8.50;99.90;;;;;;5076282;28;20189;-79
2023/04/08 01:43:43;;;;;;;29.53;21.60;;;8.40;99.90;;;;;;5074596;28;20198;-79
2023/04/08 01:46:10;;;;;;;30.17;20.67;;;8.40;99.90;;;;;;5075201;28;20182;-80
2023/04/08 01:48:36;;;;;;;26.83;20.20;;;8.40;99.90;;;;;;5081271;28;20227;-79
2023/04/08 01:51:04;;;;;;;27.60;20.00;;;8.40;99.90;;;;;;5081000;28;20182;-79
2023/04/08 01:53:30;;;;;;;26.23;19.60;;;8.40;99.90;;;;;;5082345;28;20187;-79
2023/04/08 01:56:00;;;;;;;29.00;20.40;;;8.40;99.90;;;;;;5081421;28;20186;-79
2023/04/08 01:58:30;;;;;;;29.30;21.50;;;8.30;99.90;;;;;;5082116;28;20163;-79
2023/04/08 02:00:57;;;;;;;28.67;21.47;;;8.30;99.90;;;;;;5070443;28;20226;-80
2023/04/08 02:03:26;;;;;;;31.60;21.53;;;8.30;99.90;;;;;;5061921;28;20211;-79
2023/04/08 02:05:51;;;;;;;28.80;21.47;;;8.30;99.90;;;;;;5062358;28;20175;-79
2023/04/08 02:08:17;;;;;;;28.50;21.13;;;8.20;99.90;;;;;;5063999;28;20486;-79
2023/04/08 02:10:42;;;;;;;28.97;22.00;;;8.20;99.90;;;;;;5062503;28;20251;-80
2023/04/08 02:13:08;;;;;;;35.17;21.90;;;8.20;99.90;;;;;;5061931;28;20690;-79
2023/04/08 02:15:37;;;;;;;31.77;21.97;;;8.20;99.90;;;;;;5061424;28;20221;-79
2023/04/08 02:18:12;;;;;;;26.97;20.57;;;8.20;99.90;;;;;;5061451;28;20202;-79
2023/04/08 02:20:46;;;;;;;30.47;20.43;;;8.20;99.90;;;;;;5060382;28;20202;-79
2023/04/08 02:23:15;;;;;;;28.63;21.17;;;8.20;99.90;;;;;;5057941;28;20519;-79
2023/04/08 02:25:43;;;;;;;29.70;21.07;;;8.20;99.90;;;;;;5059391;28;20194;-80
2023/04/08 02:28:10;;;;;;;30.43;21.37;;;8.20;99.90;;;;;;5059815;28;20611;-79
2023/04/08 02:30:49;;;;;;;30.13;20.93;;;8.10;99.90;;;;;;5057973;28;20719;-80
2023/04/08 02:33:18;;;;;;;29.30;20.00;;;8.20;99.90;;;;;;5059722;28;20195;-79
2023/04/08 02:35:45;;;;;;;26.50;20.30;;;8.10;99.90;;;;;;5060607;28;20176;-79
2023/04/08 02:38:10;;;;;;;29.20;21.47;;;8.00;99.90;;;;;;5059989;28;20171;-79
2023/04/08 02:40:36;;;;;;;31.37;20.47;;;8.00;99.90;;;;;;5059779;28;20241;-79
2023/04/08 02:43:02;;;;;;;32.17;20.40;;;8.00;99.90;;;;;;5058803;28;20214;-79
2023/04/08 02:45:36;;;;;;;27.40;19.77;;;7.90;99.90;;;;;;5058881;28;20602;-80
2023/04/08 02:48:02;;;;;;;27.30;20.13;;;7.90;99.90;;;;;;5060623;28;20155;-80
2023/04/08 02:50:28;;;;;;;24.73;18.17;;;7.80;99.90;;;;;;5059274;28;20566;-80
2023/04/08 02:52:54;;;;;;;22.90;17.33;;;7.80;99.90;;;;;;5059729;28;20195;-80
2023/04/08 02:55:20;;;;;;;25.80;19.17;;;7.70;99.90;;;;;;5058903;28;20183;-79
2023/04/08 02:57:48;;;;;;;25.50;19.53;;;7.70;99.90;;;;;;5058547;28;20172;-80
2023/04/08 03:00:14;;;;;;;23.17;18.37;;;7.60;99.90;;;;;;5058064;28;20217;-80
2023/04/08 03:02:40;;;;;;;24.27;18.23;;;7.60;99.90;;;;;;5058889;28;20194;-80
2023/04/08 03:05:06;;;;;;;23.97;18.87;;;7.50;99.90;;;;;;5059698;28;20266;-80
2023/04/08 03:07:32;;;;;;;26.97;18.50;;;7.50;99.90;;;;;;5059515;28;20278;-80
2023/04/08 03:09:58;;;;;;;23.57;18.27;;;7.40;99.90;;;;;;5058073;28;20176;-78
2023/04/08 03:12:26;;;;;;;25.03;20.07;;;7.40;99.90;;;;;;5059549;28;20314;-80
2023/04/08 03:14:52;;;;;;;25.53;20.13;;;7.30;99.90;;;;;;5060485;28;20675;-79
2023/04/08 03:17:18;;;;;;;24.60;19.07;;;7.20;99.90;;;;;;5060653;28;20186;-80
2023/04/08 03:19:43;;;;;;;24.43;18.67;;;7.10;99.90;;;;;;5060028;28;20266;-80
2023/04/08 03:22:09;;;;;;;25.57;19.67;;;7.10;99.90;;;;;;5057546;28;20202;-80
2023/04/08 03:24:35;;;;;;;23.00;18.37;;;7.00;99.90;;;;;;5056839;28;20206;-80
2023/04/08 03:27:01;;;;;;;25.67;18.93;;;7.00;99.90;;;;;;5058048;28;20164;-80
2023/04/08 03:29:26;;;;;;;23.83;18.13;;;6.90;99.90;;;;;;5057893;28;20310;-80
2023/04/08 03:31:52;;;;;;;25.07;19.07;;;6.90;99.90;;;;;;5056363;28;20320;-80
2023/04/08 03:34:18;;;;;;;23.63;17.90;;;6.80;99.90;;;;;;5056441;28;20290;-80
2023/04/08 03:36:43;;;;;;;29.13;18.80;;;6.80;99.90;;;;;;5056627;28;20180;-80
2023/04/08 03:39:09;;;;;;;24.93;18.23;;;6.70;99.90;;;;;;5058444;28;20202;-80
2023/04/08 03:41:35;;;;;;;23.40;17.97;;;6.70;99.90;;;;;;5057428;28;20523;-80
2023/04/08 03:44:00;;;;;;;24.57;18.20;;;6.60;99.90;;;;;;5057213;28;20191;-80
2023/04/08 03:46:26;;;;;;;27.07;19.47;;;6.60;99.90;;;;;;5057973;28;20172;-80
2023/04/08 03:48:51;;;;;;;26.27;19.07;;;6.50;99.90;;;;;;5057458;28;20202;-80
2023/04/08 03:51:17;;;;;;;26.07;18.23;;;6.50;99.90;;;;;;5057369;28;20294;-79
2023/04/08 03:53:42;;;;;;;27.77;18.93;;;6.40;99.90;;;;;;5056012;28;20201;-80
2023/04/08 03:56:08;;;;;;;24.03;17.77;;;6.30;99.90;;;;;;5057921;28;20171;-80
2023/04/08 03:58:34;;;;;;;24.33;18.27;;;6.30;99.90;;;;;;5057315;28;20635;-78
2023/04/08 04:00:59;;;;;;;34.37;19.23;;;6.30;99.90;;;;;;5056252;28;20217;-80
2023/04/08 04:03:25;;;;;;;27.97;18.23;;;6.30;99.90;;;;;;5057814;28;20195;-79
2023/04/08 04:05:50;;;;;;;31.43;18.70;;;6.20;99.90;;;;;;5056250;28;20655;-80
2023/04/08 04:08:16;;;;;;;45.40;19.17;;;6.20;99.90;;;;;;5057117;28;20271;-79
2023/04/08 04:10:41;;;;;;;39.73;19.40;;;6.20;99.90;;;;;;5056450;28;20222;-80
2023/04/08 04:13:07;;;;;;;36.73;18.03;;;6.20;99.90;;;;;;5056738;28;20215;-80
2023/04/08 04:15:32;;;;;;;49.27;18.47;;;6.20;99.90;;;;;;5057081;28;20233;-80
2023/04/08 04:17:58;;;;;;;30.13;18.30;;;6.20;99.90;;;;;;5055801;28;20237;-80
2023/04/08 04:20:24;;;;;;;42.13;18.63;;;6.20;99.90;;;;;;5055238;28;20198;-80
2023/04/08 04:22:50;;;;;;;41.17;19.73;;;6.30;99.90;;;;;;5055158;28;20207;-80
2023/04/08 04:25:16;;;;;;;33.37;17.77;;;6.30;99.90;;;;;;5055001;28;20698;-80
2023/04/08 04:27:41;;;;;;;46.03;17.83;;;6.30;99.90;;;;;;5056482;28;20186;-80
2023/04/08 04:30:08;;;;;;;42.03;18.30;;;6.30;99.90;;;;;;5055255;28;20187;-79
2023/04/08 04:32:34;;;;;;;36.13;18.30;;;6.40;99.90;;;;;;5054650;28;20195;-80
2023/04/08 04:35:00;;;;;;;32.47;18.97;;;6.40;99.90;;;;;;5055404;28;20232;-80
2023/04/08 04:37:26;;;;;;;25.93;17.30;;;6.40;99.90;;;;;;5054127;28;20600;-79
2023/04/08 04:39:51;;;;;;;37.50;18.67;;;6.40;99.90;;;;;;5054810;28;20171;-79
2023/04/08 04:42:17;;;;;;;33.07;19.37;;;6.50;99.90;;;;;;5055964;28;20202;-80
2023/04/08 04:44:43;;;;;;;27.27;19.00;;;6.50;99.90;;;;;;5056361;28;20205;-80
2023/04/08 04:47:09;;;;;;;26.03;17.43;;;6.50;99.90;;;;;;5056111;28;20187;-80
2023/04/08 04:49:34;;;;;;;22.37;17.40;;;6.50;99.90;;;;;;5056133;28;20163;-80
2023/04/08 04:52:00;;;;;;;32.07;16.83;;;6.50;99.90;;;;;;5055282;28;20184;-79
2023/04/08 04:54:25;;;;;;;32.67;16.83;;;6.50;99.90;;;;;;5056641;28;20242;-80
2023/04/08 04:56:51;;;;;;;37.93;17.57;;;6.60;99.90;;;;;;5056659;28;20179;-80
2023/04/08 04:59:16;;;;;;;26.70;18.87;;;6.60;99.90;;;;;;5055365;28;20382;-79
2023/04/08 05:01:42;;;;;;;29.53;18.97;;;6.60;99.90;;;;;;5056787;28;20301;-80
2023/04/08 05:04:08;;;;;;;35.77;19.63;;;6.60;99.90;;;;;;5055087;28;20206;-80
2023/04/08 05:06:33;;;;;;;29.80;19.10;;;6.60;99.90;;;;;;5056052;28;20172;-79
2023/04/08 05:08:59;;;;;;;39.67;21.00;;;6.70;99.90;;;;;;5057466;28;20168;-79
2023/04/08 05:11:24;;;;;;;32.50;20.23;;;6.70;99.90;;;;;;5057457;28;20184;-79
2023/04/08 05:13:50;;;;;;;26.47;18.67;;;6.80;99.90;;;;;;5055332;28;20230;-80
2023/04/08 05:16:16;;;;;;;25.83;18.97;;;6.80;99.90;;;;;;5055046;28;20234;-80
2023/04/08 05:18:42;;;;;;;30.67;18.67;;;6.80;99.90;;;;;;5054394;28;20244;-79
2023/04/08 05:21:07;;;;;;;31.30;18.73;;;6.80;99.90;;;;;;5055908;28;20176;-79
2023/04/08 05:23:36;;;;;;;34.33;20.23;;;6.80;99.90;;;;;;5059376;28;20284;-80
2023/04/08 05:26:02;;;;;;;32.07;19.90;;;6.80;99.90;;;;;;5058810;28;20224;-80
2023/04/08 05:28:27;;;;;;;32.27;19.60;;;6.80;99.90;;;;;;5059629;28;20195;-80
2023/04/08 05:30:53;;;;;;;30.13;18.90;;;6.90;99.90;;;;;;5058133;28;20175;-78
2023/04/08 05:33:19;;;;;;;32.57;21.30;;;6.90;99.90;;;;;;5058182;28;20613;-80
2023/04/08 05:35:45;;;;;;;43.57;19.93;;;6.80;99.90;;;;;;5059712;28;20178;-80
2023/04/08 05:38:11;;;;;;;52.37;19.33;;;6.90;99.90;;;;;;5059811;28;20176;-80
2023/04/08 05:40:36;;;;;;;37.73;20.23;;;6.90;99.90;;;;;;5060089;28;20186;-80
2023/04/08 05:43:02;;;;;;;29.27;20.00;;;6.90;99.90;;;;;;5060536;28;20207;-80
2023/04/08 05:45:28;;;;;;;34.13;20.37;;;6.90;99.90;;;;;;5060045;28;20178;-81
2023/04/08 05:47:53;;;;;;;25.80;19.37;;;6.90;99.90;;;;;;5058197;28;20175;-80
2023/04/08 05:50:19;;;;;;;31.47;20.80;;;6.90;99.90;;;;;;5058811;28;20176;-81
2023/04/08 05:52:45;;;;;;;28.57;20.07;;;7.00;99.90;;;;;;5058127;28;20203;-80
2023/04/08 05:55:12;;;;;;;29.00;20.77;;;7.00;99.90;;;;;;5058164;28;20557;-81
2023/04/08 05:57:37;;;;;;;32.37;21.70;;;7.00;99.90;;;;;;5057586;28;20195;-80
2023/04/08 06:00:05;;;;;;;31.23;21.70;;;7.10;99.90;;;;;;5058928;28;20176;-80
2023/04/08 06:02:30;;;;;;;32.13;22.10;;;7.10;99.90;;;;;;5057805;28;20264;-79
2023/04/08 06:04:56;;;;;;;33.67;22.03;;;7.10;99.90;;;;;;5057745;28;20195;-81
2023/04/08 06:07:21;;;;;;;33.50;21.97;;;7.20;99.90;;;;;;5059367;28;20259;-81
2023/04/08 06:09:47;;;;;;;36.67;22.50;;;7.20;99.90;;;;;;5057883;28;20178;-81
2023/04/08 06:12:12;;;;;;;59.10;24.90;;;7.20;99.90;;;;;;5056425;28;20207;-82
2023/04/08 06:14:38;;;;;;;76.03;25.97;;;7.30;99.90;;;;;;5057394;28;20175;-81
2023/04/08 06:17:03;;;;;;;45.43;26.77;;;7.30;99.90;;;;;;5058954;28;20254;-82
2023/04/08 06:19:29;;;;;;;42.67;26.57;;;7.30;99.90;;;;;;5058694;28;20168;-79
2023/04/08 06:21:57;;;;;;;39.93;26.00;;;7.30;99.90;;;;;;5058748;28;20189;-81
2023/04/08 06:24:28;;;;;;;46.33;26.93;;;7.30;99.90;;;;;;5056856;28;20694;-82
2023/04/08 06:26:53;;;;;;;48.40;27.17;;;7.30;99.90;;;;;;5056995;28;20164;-81
2023/04/08 06:29:20;;;;;;;51.03;27.83;;;7.30;99.90;;;;;;5058122;28;20220;-81
2023/04/08 06:31:46;;;;;;;51.53;27.90;;;7.30;99.90;;;;;;5058333;28;20164;-80
2023/04/08 06:34:12;;;;;;;50.83;28.03;;;7.30;99.90;;;;;;5059987;28;20560;-79
2023/04/08 06:36:37;;;;;;;66.07;30.53;;;7.30;99.90;;;;;;5058767;28;20619;-80
2023/04/08 06:39:03;;;;;;;54.97;30.67;;;7.30;99.90;;;;;;5061203;28;20176;-80
2023/04/08 06:41:29;;;;;;;58.80;32.10;;;7.30;99.90;;;;;;5059262;28;20559;-79
2023/04/08 06:43:55;;;;;;;70.57;34.37;;;7.40;99.90;;;;;;5059134;28;20195;-80
2023/04/08 06:46:20;;;;;;;81.20;34.43;;;7.40;99.90;;;;;;5060169;28;20179;-80
2023/04/08 06:48:46;;;;;;;78.17;33.43;;;7.40;99.90;;;;;;5060785;28;20250;-80
2023/04/08 06:51:12;;;;;;;72.97;33.97;;;7.40;99.90;;;;;;5059028;28;20611;-80
2023/04/08 06:53:37;;;;;;;79.23;34.30;;;7.40;99.90;;;;;;5058208;28;20195;-80
2023/04/08 06:56:03;;;;;;;85.00;38.83;;;7.40;99.90;;;;;;5060220;28;20187;-79
2023/04/08 06:58:29;;;;;;;86.53;37.50;;;7.40;99.90;;;;;;5057828;28;20172;-78
2023/04/08 07:00:55;;;;;;;95.67;41.43;;;7.40;99.90;;;;;;5059785;28;20187;-80
2023/04/08 07:03:21;;;;;;;102.33;42.57;;;7.50;99.90;;;;;;5071727;28;20206;-78
2023/04/08 07:05:46;;;;;;;107.33;42.93;;;7.50;99.90;;;;;;5075040;28;20168;-79
2023/04/08 07:08:12;;;;;;;96.27;40.20;;;7.50;99.90;;;;;;5075064;28;20183;-79
2023/04/08 07:10:37;;;;;;;93.73;41.73;;;7.50;99.90;;;;;;5075011;28;20251;-77
2023/04/08 07:13:03;;;;;;;91.43;41.60;;;7.50;99.90;;;;;;5072440;28;20191;-78
2023/04/08 07:15:29;;;;;;;92.77;40.77;;;7.50;99.90;;;;;;5066145;28;20175;-79
2023/04/08 07:17:58;;;;;;;90.07;38.30;;;7.60;99.90;;;;;;5064774;28;20217;-78
2023/04/08 07:20:24;;;;;;;98.97;39.90;;;7.60;99.90;;;;;;5063878;28;20200;-79
2023/04/08 07:22:51;;;;;;;101.00;41.83;;;7.60;99.90;;;;;;5064211;28;20631;-79
2023/04/08 07:25:16;;;;;;;97.37;42.20;;;7.60;99.90;;;;;;5062430;28;20221;-79
2023/04/08 07:27:42;;;;;;;94.90;42.50;;;7.70;99.90;;;;;;5064955;28;20230;-78
2023/04/08 07:30:08;;;;;;;99.03;42.67;;;7.70;99.90;;;;;;5063340;28;20321;-79
2023/04/08 07:32:33;;;;;;;100.63;41.53;;;7.70;99.90;;;;;;5062418;28;20552;-79
2023/04/08 07:35:00;;;;;;;97.13;42.10;;;7.70;99.90;;;;;;5064111;28;20574;-81
2023/04/08 07:37:26;;;;;;;88.97;40.27;;;7.80;99.90;;;;;;5060659;28;20266;-80
2023/04/08 07:39:51;;;;;;;84.00;39.07;;;7.80;99.90;;;;;;5058858;28;20204;-80
2023/04/08 07:42:17;;;;;;;92.33;39.27;;;7.70;99.90;;;;;;5059329;28;20215;-79
2023/04/08 07:44:44;;;;;;;85.67;39.17;;;7.70;99.90;;;;;;5057312;28;20191;-80
2023/04/08 07:47:10;;;;;;;98.40;41.13;;;7.80;99.90;;;;;;5060259;28;20175;-81
2023/04/08 07:49:36;;;;;;;96.40;40.87;;;7.80;99.90;;;;;;5057365;28;20597;-79
2023/04/08 07:52:01;;;;;;;92.83;39.17;;;7.80;99.90;;;;;;5057676;28;20239;-78
2023/04/08 07:54:29;;;;;;;99.33;40.67;;;7.70;99.90;;;;;;5056777;28;20191;-79
2023/04/08 07:56:55;;;;;;;91.73;39.90;;;7.80;99.90;;;;;;5056806;28;20237;-79
2023/04/08 07:59:21;;;;;;;101.37;40.40;;;7.80;99.90;;;;;;5057708;28;20172;-80
2023/04/08 08:01:47;;;;;;;86.90;40.77;;;7.70;99.90;;;;;;5057897;28;20178;-80
2023/04/08 08:04:12;;;;;;;92.70;41.30;;;7.80;99.90;;;;;;5057595;28;20282;-80
2023/04/08 08:06:38;;;;;;;87.27;37.90;;;7.70;99.90;;;;;;5057960;28;20224;-80
2023/04/08 08:09:04;;;;;;;77.77;35.10;;;7.70;99.90;;;;;;5057621;28;20254;-79
2023/04/08 08:11:30;;;;;;;66.53;32.57;;;7.70;99.90;;;;;;5057516;28;20243;-79
2023/04/08 08:13:55;;;;;;;72.77;33.83;;;7.70;99.90;;;;;;5055641;28;20198;-81
2023/04/08 08:16:21;;;;;;;79.23;34.40;;;7.60;99.90;;;;;;5055197;28;20207;-79
2023/04/08 08:18:47;;;;;;;79.13;37.10;;;7.70;99.90;;;;;;5056427;28;20543;-79
2023/04/08 08:21:13;;;;;;;80.47;36.70;;;7.70;99.90;;;;;;5056843;28;20606;-79
2023/04/08 08:23:38;;;;;;;78.00;36.43;;;7.70;99.90;;;;;;5055311;28;20199;-79
2023/04/08 08:26:06;;;;;;;84.30;36.60;;;7.70;99.90;;;;;;5056778;28;20171;-79
2023/04/08 08:28:32;;;;;;;87.37;40.37;;;7.70;99.90;;;;;;5055650;28;20168;-79
2023/04/08 08:30:58;;;;;;;78.33;36.57;;;7.70;99.90;;;;;;5054876;28;20224;-79
2023/04/08 08:33:24;;;;;;;75.30;37.27;;;7.70;99.90;;;;;;5056063;28;20576;-79
2023/04/08 08:35:50;;;;;;;84.67;38.83;;;7.70;99.90;;;;;;5056877;28;20545;-79
2023/04/08 08:38:16;;;;;;;84.57;40.90;;;7.70;99.90;;;;;;5056347;28;20179;-79
2023/04/08 08:40:43;;;;;;;90.73;41.73;;;7.70;99.90;;;;;;5054372;28;20184;-79
2023/04/08 08:43:10;;;;;;;98.00;42.73;;;7.70;99.90;;;;;;5054646;28;20290;-78
2023/04/08 08:45:39;;;;;;;108.87;46.57;;;7.80;99.90;;;;;;5054592;28;20207;-77
2023/04/08 08:48:07;;;;;;;110.90;44.63;;;7.80;99.90;;;;;;5054258;28;20571;-79
2023/04/08 08:50:33;;;;;;;105.73;46.90;;;7.90;99.90;;;;;;5054513;28;20218;-78
2023/04/08 08:52:59;;;;;;;117.87;46.27;;;7.90;99.90;;;;;;5055814;28;20196;-80
2023/04/08 08:55:24;;;;;;;109.70;47.17;;;7.90;99.90;;;;;;5056253;28;20168;-78
2023/04/08 08:57:50;;;;;;;120.13;48.97;;;8.00;99.90;;;;;;5059050;28;20233;-79
2023/04/08 09:00:16;;;;;;;119.57;48.90;;;8.10;99.90;;;;;;5058714;28;20191;-80
2023/04/08 09:02:42;;;;;;;110.37;49.57;;;8.10;99.90;;;;;;5058873;28;20242;-80
2023/04/08 09:05:08;;;;;;;112.60;49.90;;;8.30;99.90;;;;;;5060480;28;20222;-81
2023/04/08 09:07:40;;;;;;;104.67;49.60;;;8.30;99.90;;;;;;5059369;28;20182;-80
2023/04/08 09:10:07;;;;;;;107.50;49.13;;;8.20;99.90;;;;;;5061024;28;20171;-78
2023/04/08 09:12:32;;;;;;;109.20;48.47;;;8.20;99.90;;;;;;5059814;28;20586;-81
2023/04/08 09:15:08;;;;;;;118.17;51.53;;;8.30;99.90;;;;;;5060802;28;20172;-81
2023/04/08 09:17:36;;;;;;;110.73;49.27;;;8.20;99.90;;;;;;5060105;28;20160;-80
2023/04/08 09:20:11;;;;;;;117.27;48.40;;;8.30;99.90;;;;;;5060361;28;20182;-80
2023/04/08 09:22:57;;;;;;;122.37;50.67;;;8.30;99.90;;;;;;5059086;28;20221;-80
2023/04/08 09:25:25;;;;;;;111.43;49.10;;;8.40;99.90;;;;;;5058304;28;20196;-81
2023/04/08 09:27:51;;;;;;;121.57;53.33;;;8.30;99.90;;;;;;5060016;28;20176;-80
2023/04/08 09:30:17;;;;;;;120.37;51.03;;;8.30;99.90;;;;;;5060198;28;20648;-81
2023/04/08 09:32:53;;;;;;;125.07;52.33;;;8.50;99.90;;;;;;5058104;28;20293;-80
2023/04/08 09:35:19;;;;;;;117.27;49.03;;;8.60;99.90;;;;;;5058069;28;20167;-79
2023/04/08 09:37:45;;;;;;;122.07;51.50;;;8.60;99.90;;;;;;5058508;28;20197;-81
2023/04/08 09:40:11;;;;;;;112.30;47.17;;;8.60;99.90;;;;;;5058938;28;20611;-80
2023/04/08 09:42:39;;;;;;;98.57;47.67;;;8.70;99.90;;;;;;5058637;28;20548;-81
2023/04/08 09:45:07;;;;;;;110.53;51.13;;;8.90;99.90;;;;;;5059122;28;20192;-80
2023/04/08 09:47:54;;;;;;;116.37;54.37;;;9.00;99.90;;;;;;5057817;28;20222;-79
2023/04/08 09:50:25;;;;;;;110.33;48.77;;;8.90;99.90;;;;;;5059552;28;20156;-80
2023/04/08 09:52:57;;;;;;;97.27;47.70;;;8.90;99.90;;;;;;5058152;28;20188;-81
2023/04/08 09:55:26;;;;;;;102.93;49.13;;;9.00;99.90;;;;;;5056929;28;20628;-80
2023/04/08 09:58:00;;;;;;;94.70;46.60;;;9.10;99.90;;;;;;5058579;28;20180;-80
2023/04/08 10:00:37;;;;;;;83.00;45.60;;;9.20;99.90;;;;;;5058019;28;20589;-81
2023/04/08 10:03:46;;;;;;;82.20;43.93;;;9.20;99.90;;;;;;5058287;28;20218;-81
2023/04/08 10:06:12;;;;;;;85.10;42.83;;;9.40;99.90;;;;;;5057909;28;20186;-80
2023/04/08 10:08:38;;;;;;;66.73;40.60;;;9.50;99.90;;;;;;5057640;28;20175;-80
2023/04/08 10:11:04;;;;;;;63.07;38.67;;;9.60;99.90;;;;;;5058669;28;20266;-81
2023/04/08 10:13:30;;;;;;;53.93;36.50;;;9.70;99.90;;;;;;5057644;28;20616;-80
2023/04/08 10:16:17;;;;;;;55.17;37.53;;;9.70;99.90;;;;;;5064820;28;20272;-81
2023/04/08 10:18:43;;;;;;;47.10;32.70;;;9.70;99.90;;;;;;5060418;28;20191;-80
2023/04/08 10:21:34;;;;;;;48.63;34.10;;;9.70;99.90;;;;;;5060765;28;20302;-80
2023/04/08 10:24:05;;;;;;;45.77;34.60;;;9.90;99.90;;;;;;5058590;28;20232;-80
2023/04/08 10:26:57;;;;;;;42.90;31.10;;;9.90;99.90;;;;;;5058630;28;20172;-82
2023/04/08 10:29:30;;;;;;;44.27;29.57;;;9.90;99.90;;;;;;5066175;28;20551;-81
2023/04/08 10:31:56;;;;;;;40.03;27.97;;;10.00;99.90;;;;;;5058146;28;20646;-81
2023/04/08 10:34:25;;;;;;;40.23;27.50;;;10.10;99.90;;;;;;5057558;28;20263;-81
2023/04/08 10:36:51;;;;;;;36.50;26.30;;;10.10;99.90;;;;;;5059524;28;20262;-81
2023/04/08 10:39:17;;;;;;;37.60;25.40;;;10.20;99.90;;;;;;5060069;28;20172;-81
2023/04/08 10:41:47;;;;;;;38.43;24.80;;;10.40;99.90;;;;;;5058387;28;20188;-79
2023/04/08 10:44:27;;;;;;;36.03;24.10;;;10.50;99.90;;;;;;5058095;28;20214;-81
2023/04/08 10:46:53;;;;;;;33.33;22.77;;;10.70;99.90;;;;;;5060203;28;20680;-81
2023/04/08 10:49:19;;;;;;;28.63;19.53;;;10.80;99.90;;;;;;5060037;28;20203;-81
2023/04/08 10:51:45;;;;;;;18.20;14.47;;;10.90;99.90;;;;;;5060719;28;20171;-81
2023/04/08 10:54:20;;;;;;;13.20;10.97;;;11.00;99.90;;;;;;5058941;28;20180;-81
2023/04/08 10:56:51;;;;;;;13.27;9.23;;;11.00;99.90;;;;;;5060104;28;20685;-80
2023/04/08 10:59:27;;;;;;;14.13;9.03;;;11.10;99.90;;;;;;5060383;28;20175;-81
2023/04/08 11:01:52;;;;;;;11.87;10.13;;;11.10;58.80;;;;;;5060272;28;20176;-81
2023/04/08 11:04:18;;;;;;;12.40;9.37;;;11.10;24.70;;;;;;5058723;28;20210;-81
2023/04/08 11:06:46;;;;;;;12.20;8.83;;;11.10;1.00;;;;;;5057498;28;20179;-80
2023/04/08 11:09:12;;;;;;;9.57;7.47;;;11.10;29.10;;;;;;5057766;28;20175;-81
2023/04/08 11:11:40;;;;;;;10.10;6.83;;;11.20;99.90;;;;;;5059421;28;20183;-80
2023/04/08 11:14:06;;;;;;;7.73;6.00;;;11.10;99.90;;;;;;5058929;28;20168;-81
2023/04/08 11:16:32;;;;;;;9.60;7.90;;;11.20;99.90;;;;;;5059338;28;20179;-81
2023/04/08 11:18:58;;;;;;;10.77;8.30;;;11.20;99.90;;;;;;5057191;28;20253;-81
2023/04/08 11:21:24;;;;;;;8.23;7.40;;;11.20;99.90;;;;;;5058607;28;20175;-80
2023/04/08 11:23:51;;;;;;;10.57;8.80;;;11.00;99.90;;;;;;5058187;28;20222;-81
2023/04/08 11:26:20;;;;;;;9.90;7.70;;;11.10;99.90;;;;;;5056559;28;20214;-81
2023/04/08 11:28:49;;;;;;;9.53;7.23;;;11.00;99.90;;;;;;5055814;28;20210;-81
2023/04/08 11:31:15;;;;;;;10.83;7.63;;;11.00;99.90;;;;;;5055566;28;20172;-81
2023/04/08 11:33:46;;;;;;;8.70;7.07;;;10.90;1.00;;;;;;5057001;28;20202;-81
2023/04/08 11:36:12;;;;;;;10.17;7.93;;;10.90;1.00;;;;;;5056846;28;20171;-80
2023/04/08 11:38:41;;;;;;;10.03;7.43;;;10.90;1.00;;;;;;5057064;28;20182;-81
2023/04/08 11:41:07;;;;;;;8.40;7.20;;;10.70;99.90;;;;;;5058111;28;20259;-81
2023/04/08 11:43:32;;;;;;;11.00;6.93;;;10.70;99.90;;;;;;5055843;28;20683;-80
2023/04/08 11:45:58;;;;;;;9.93;7.50;;;10.80;1.00;;;;;;5060105;28;20167;-81
2023/04/08 11:48:23;;;;;;;7.90;6.83;;;10.80;1.00;;;;;;5060817;28;20233;-80
2023/04/08 11:51:02;;;;;;;10.77;7.07;;;10.80;1.00;;;;;;5060542;28;20168;-79
2023/04/08 11:53:28;;;;;;;8.67;7.10;;;10.70;1.00;;;;;;5060636;28;20237;-80
2023/04/08 11:55:54;;;;;;;7.80;6.63;;;10.80;99.90;;;;;;5059123;28;20210;-81
2023/04/08 11:58:20;;;;;;;10.13;7.17;;;10.70;99.90;;;;;;5060484;28;20168;-80
2023/04/08 12:00:46;;;;;;;9.47;6.93;;;10.70;99.90;;;;;;5059633;28;20527;-80
2023/04/08 12:03:12;;;;;;;13.47;7.03;;;10.70;99.90;;;;;;5059462;28;20192;-80
2023/04/08 12:05:38;;;;;;;8.37;6.67;;;10.60;99.90;;;;;;5057421;28;20183;-81
2023/04/08 12:08:03;;;;;;;8.83;6.17;;;10.60;99.90;;;;;;5055397;28;20221;-80
2023/04/08 12:10:29;;;;;;;7.53;6.13;;;10.60;99.90;;;;;;5056282;28;20171;-81
2023/04/08 12:12:55;;;;;;;7.33;5.93;;;10.60;99.90;;;;;;5055912;28;20187;-80
2023/04/08 12:15:20;;;;;;;8.83;6.13;;;10.70;99.90;;;;;;5056465;28;20225;-80
2023/04/08 12:17:46;;;;;;;6.93;5.90;;;10.70;99.90;;;;;;5056329;28;20182;-80
2023/04/08 12:20:12;;;;;;;8.17;6.57;;;10.70;99.90;;;;;;5056773;28;20172;-80
2023/04/08 12:22:38;;;;;;;6.70;6.00;;;10.70;99.90;;;;;;5056120;28;20207;-80
2023/04/08 12:25:05;;;;;;;9.13;6.77;;;10.80;99.90;;;;;;5056854;28;20206;-80
2023/04/08 12:27:34;;;;;;;8.57;6.30;;;10.90;99.90;;;;;;5055816;28;20518;-81
2023/04/08 12:30:01;;;;;;;8.13;5.73;;;10.90;99.90;;;;;;5056367;28;20246;-79
2023/04/08 12:32:26;;;;;;;7.13;6.13;;;10.90;99.90;;;;;;5056137;28;20190;-80
2023/04/08 12:34:52;;;;;;;7.67;6.43;;;11.10;99.90;;;;;;5054866;28;20175;-80
2023/04/08 12:37:19;;;;;;;8.77;6.57;;;11.10;99.90;;;;;;5057119;28;20175;-80